sensor_id;sensor_type;location;lat;lon;timestamp;P1;durP1;ratioP1;P2;durP2;ratioP2
6420;SDS011;3243;50.958;7.012;2023-04-25T00:02:08;8.30;;;5.00;;
6420;SDS011;3243;50.958;7.012;2023-04-25T00:04:35;14.17;;;5.50;;
6420;SDS011;3243;50.958;7.012;2023-04-25T00:07:04;12.70;;;5.40;;
6420;SDS011;3243;50.958;7.012;2023-04-25T00:09:31;13.63;;;5.03;;
6420;SDS011;3243;50.958;7.012;2023-04-25T00:11:58;8.50;;;5.07;;
6420;SDS011;3243;50.958;7.012;2023-04-25T00:14:25;10.87;;;4.40;;
6420;SDS011;3243;50.958;7.012;2023-04-25T00:16:51;12.70;;;5.73;;
6420;SDS011;3243;50.958;7.012;2023-04-25T00:19:18;10.63;;;5.60;;
6420;SDS011;3243;50.958;7.012;2023-04-25T00:21:45;12.77;;;5.17;;
6420;SDS011;3243;50.958;7.012;2023-04-25T00:24:12;14.40;;;5.40;;
6420;SDS011;3243;50.958;7.012;2023-04-25T00:26:39;11.27;;;4.60;;
6420;SDS011;3243;50.958;7.012;2023-04-25T00:29:06;17.40;;;7.10;;
6420;SDS011;3243;50.958;7.012;2023-04-25T00:31:32;12.30;;;5.20;;
6420;SDS011;3243;50.958;7.012;2023-04-25T00:33:59;14.93;;;6.20;;
6420;SDS011;3243;50.958;7.012;2023-04-25T00:36:26;10.90;;;5.00;;
6420;SDS011;3243;50.958;7.012;2023-04-25T00:38:53;14.77;;;5.07;;
6420;SDS011;3243;50.958;7.012;2023-04-25T00:41:21;17.13;;;5.23;;
6420;SDS011;3243;50.958;7.012;2023-04-25T00:43:48;13.83;;;5.43;;
6420;SDS011;3243;50.958;7.012;2023-04-25T00:46:16;12.03;;;4.83;;
6420;SDS011;3243;50.958;7.012;2023-04-25T00:48:43;14.80;;;5.53;;
6420;SDS011;3243;50.958;7.012;2023-04-25T00:51:10;11.53;;;4.63;;
6420;SDS011;3243;50.958;7.012;2023-04-25T00:53:41;12.93;;;4.70;;
6420;SDS011;3243;50.958;7.012;2023-04-25T00:56:09;11.90;;;4.57;;
6420;SDS011;3243;50.958;7.012;2023-04-25T00:58:35;12.00;;;5.10;;
6420;SDS011;3243;50.958;7.012;2023-04-25T01:01:03;9.53;;;4.90;;
6420;SDS011;3243;50.958;7.012;2023-04-25T01:03:31;14.13;;;5.10;;
6420;SDS011;3243;50.958;7.012;2023-04-25T01:06:01;9.50;;;5.03;;
6420;SDS011;3243;50.958;7.012;2023-04-25T01:08:29;14.13;;;5.70;;
6420;SDS011;3243;50.958;7.012;2023-04-25T01:10:56;11.23;;;4.97;;
6420;SDS011;3243;50.958;7.012;2023-04-25T01:13:23;11.23;;;5.33;;
6420;SDS011;3243;50.958;7.012;2023-04-25T01:15:49;14.47;;;5.53;;
6420;SDS011;3243;50.958;7.012;2023-04-25T01:18:16;14.63;;;5.17;;
6420;SDS011;3243;50.958;7.012;2023-04-25T01:20:45;13.40;;;5.30;;
6420;SDS011;3243;50.958;7.012;2023-04-25T01:23:13;9.83;;;4.70;;
6420;SDS011;3243;50.958;7.012;2023-04-25T01:25:40;18.07;;;5.20;;
6420;SDS011;3243;50.958;7.012;2023-04-25T01:28:06;16.73;;;5.50;;
6420;SDS011;3243;50.958;7.012;2023-04-25T01:30:34;12.67;;;4.70;;
6420;SDS011;3243;50.958;7.012;2023-04-25T01:33:01;15.33;;;5.07;;
6420;SDS011;3243;50.958;7.012;2023-04-25T01:35:31;18.63;;;5.40;;
6420;SDS011;3243;50.958;7.012;2023-04-25T01:37:58;13.57;;;5.30;;
6420;SDS011;3243;50.958;7.012;2023-04-25T01:40:25;13.90;;;4.83;;
6420;SDS011;3243;50.958;7.012;2023-04-25T01:42:54;14.37;;;5.03;;
6420;SDS011;3243;50.958;7.012;2023-04-25T01:45:20;15.27;;;5.73;;
6420;SDS011;3243;50.958;7.012;2023-04-25T01:47:47;15.23;;;4.87;;
6420;SDS011;3243;50.958;7.012;2023-04-25T01:50:16;10.93;;;4.70;;
6420;SDS011;3243;50.958;7.012;2023-04-25T01:52:45;12.87;;;4.97;;
6420;SDS011;3243;50.958;7.012;2023-04-25T01:55:12;15.53;;;5.47;;
6420;SDS011;3243;50.958;7.012;2023-04-25T01:57:38;11.20;;;5.00;;
6420;SDS011;3243;50.958;7.012;2023-04-25T02:00:07;12.67;;;4.90;;
6420;SDS011;3243;50.958;7.012;2023-04-25T02:02:35;11.20;;;4.87;;
6420;SDS011;3243;50.958;7.012;2023-04-25T02:05:02;14.57;;;5.57;;
6420;SDS011;3243;50.958;7.012;2023-04-25T02:07:29;15.17;;;5.73;;
6420;SDS011;3243;50.958;7.012;2023-04-25T02:09:56;15.57;;;5.57;;
6420;SDS011;3243;50.958;7.012;2023-04-25T02:12:23;15.03;;;5.30;;
6420;SDS011;3243;50.958;7.012;2023-04-25T02:14:50;17.03;;;5.57;;
6420;SDS011;3243;50.958;7.012;2023-04-25T02:17:17;13.37;;;5.60;;
6420;SDS011;3243;50.958;7.012;2023-04-25T02:19:44;12.53;;;5.53;;
6420;SDS011;3243;50.958;7.012;2023-04-25T02:22:11;14.87;;;5.30;;
6420;SDS011;3243;50.958;7.012;2023-04-25T02:24:37;12.37;;;5.03;;
6420;SDS011;3243;50.958;7.012;2023-04-25T02:27:04;12.53;;;5.07;;
6420;SDS011;3243;50.958;7.012;2023-04-25T02:29:32;17.40;;;5.37;;
6420;SDS011;3243;50.958;7.012;2023-04-25T02:31:58;14.53;;;5.53;;
6420;SDS011;3243;50.958;7.012;2023-04-25T02:34:25;17.30;;;5.10;;
6420;SDS011;3243;50.958;7.012;2023-04-25T02:36:52;11.77;;;5.03;;
6420;SDS011;3243;50.958;7.012;2023-04-25T02:39:18;11.93;;;5.27;;
6420;SDS011;3243;50.958;7.012;2023-04-25T02:41:45;10.97;;;4.87;;
6420;SDS011;3243;50.958;7.012;2023-04-25T02:44:12;12.20;;;5.10;;
6420;SDS011;3243;50.958;7.012;2023-04-25T02:46:38;12.80;;;4.73;;
6420;SDS011;3243;50.958;7.012;2023-04-25T02:49:06;9.00;;;4.50;;
6420;SDS011;3243;50.958;7.012;2023-04-25T02:51:33;13.67;;;4.53;;
6420;SDS011;3243;50.958;7.012;2023-04-25T02:54:00;10.63;;;4.53;;
6420;SDS011;3243;50.958;7.012;2023-04-25T02:56:26;11.53;;;4.60;;
6420;SDS011;3243;50.958;7.012;2023-04-25T02:58:54;9.77;;;4.37;;
6420;SDS011;3243;50.958;7.012;2023-04-25T03:01:22;9.50;;;4.30;;
6420;SDS011;3243;50.958;7.012;2023-04-25T03:03:48;7.63;;;3.87;;
6420;SDS011;3243;50.958;7.012;2023-04-25T03:06:16;8.80;;;3.60;;
6420;SDS011;3243;50.958;7.012;2023-04-25T03:08:42;7.37;;;4.10;;
6420;SDS011;3243;50.958;7.012;2023-04-25T03:11:09;11.30;;;3.87;;
6420;SDS011;3243;50.958;7.012;2023-04-25T03:13:36;9.63;;;4.13;;
6420;SDS011;3243;50.958;7.012;2023-04-25T03:16:03;8.27;;;4.03;;
6420;SDS011;3243;50.958;7.012;2023-04-25T03:18:30;6.83;;;3.63;;
6420;SDS011;3243;50.958;7.012;2023-04-25T03:20:57;8.00;;;3.67;;
6420;SDS011;3243;50.958;7.012;2023-04-25T03:23:24;8.60;;;4.20;;
6420;SDS011;3243;50.958;7.012;2023-04-25T03:25:52;8.50;;;3.57;;
6420;SDS011;3243;50.958;7.012;2023-04-25T03:28:18;8.03;;;3.73;;
6420;SDS011;3243;50.958;7.012;2023-04-25T03:30:46;10.50;;;4.17;;
6420;SDS011;3243;50.958;7.012;2023-04-25T03:33:12;6.67;;;3.80;;
6420;SDS011;3243;50.958;7.012;2023-04-25T03:35:39;7.87;;;4.07;;
6420;SDS011;3243;50.958;7.012;2023-04-25T03:38:06;9.37;;;3.70;;
6420;SDS011;3243;50.958;7.012;2023-04-25T03:40:32;7.50;;;4.40;;
6420;SDS011;3243;50.958;7.012;2023-04-25T03:42:59;10.20;;;4.03;;
6420;SDS011;3243;50.958;7.012;2023-04-25T03:45:26;10.60;;;3.83;;
6420;SDS011;3243;50.958;7.012;2023-04-25T03:47:53;10.57;;;4.10;;
6420;SDS011;3243;50.958;7.012;2023-04-25T03:50:19;8.03;;;4.00;;
6420;SDS011;3243;50.958;7.012;2023-04-25T03:52:46;8.53;;;3.50;;
6420;SDS011;3243;50.958;7.012;2023-04-25T03:55:13;8.47;;;4.67;;
6420;SDS011;3243;50.958;7.012;2023-04-25T03:57:39;12.30;;;4.80;;
6420;SDS011;3243;50.958;7.012;2023-04-25T04:00:06;9.73;;;3.97;;
6420;SDS011;3243;50.958;7.012;2023-04-25T04:02:34;10.47;;;4.77;;
6420;SDS011;3243;50.958;7.012;2023-04-25T04:05:03;8.80;;;4.53;;
6420;SDS011;3243;50.958;7.012;2023-04-25T04:07:30;10.17;;;4.90;;
6420;SDS011;3243;50.958;7.012;2023-04-25T04:09:59;10.53;;;4.93;;
6420;SDS011;3243;50.958;7.012;2023-04-25T04:12:26;11.93;;;5.17;;
6420;SDS011;3243;50.958;7.012;2023-04-25T04:14:52;9.33;;;5.23;;
6420;SDS011;3243;50.958;7.012;2023-04-25T04:17:19;13.60;;;5.83;;
6420;SDS011;3243;50.958;7.012;2023-04-25T04:19:46;14.33;;;5.83;;
6420;SDS011;3243;50.958;7.012;2023-04-25T04:22:12;12.73;;;5.17;;
6420;SDS011;3243;50.958;7.012;2023-04-25T04:24:39;11.83;;;5.30;;
6420;SDS011;3243;50.958;7.012;2023-04-25T04:27:06;14.03;;;6.27;;
6420;SDS011;3243;50.958;7.012;2023-04-25T04:29:33;15.50;;;5.97;;
6420;SDS011;3243;50.958;7.012;2023-04-25T04:31:59;13.70;;;5.77;;
6420;SDS011;3243;50.958;7.012;2023-04-25T04:34:28;14.17;;;5.37;;
6420;SDS011;3243;50.958;7.012;2023-04-25T04:36:55;11.43;;;5.73;;
6420;SDS011;3243;50.958;7.012;2023-04-25T04:39:22;16.50;;;6.33;;
6420;SDS011;3243;50.958;7.012;2023-04-25T04:41:49;10.93;;;5.83;;
6420;SDS011;3243;50.958;7.012;2023-04-25T04:44:17;16.27;;;5.83;;
6420;SDS011;3243;50.958;7.012;2023-04-25T04:46:43;12.80;;;5.80;;
6420;SDS011;3243;50.958;7.012;2023-04-25T04:49:11;9.67;;;5.43;;
6420;SDS011;3243;50.958;7.012;2023-04-25T04:51:39;13.07;;;5.40;;
6420;SDS011;3243;50.958;7.012;2023-04-25T04:54:13;12.50;;;5.90;;
6420;SDS011;3243;50.958;7.012;2023-04-25T04:56:39;16.37;;;5.90;;
6420;SDS011;3243;50.958;7.012;2023-04-25T04:59:06;13.00;;;5.93;;
6420;SDS011;3243;50.958;7.012;2023-04-25T05:01:33;15.20;;;5.43;;
6420;SDS011;3243;50.958;7.012;2023-04-25T05:04:02;14.87;;;7.20;;
6420;SDS011;3243;50.958;7.012;2023-04-25T05:06:29;12.20;;;6.40;;
6420;SDS011;3243;50.958;7.012;2023-04-25T05:08:57;14.17;;;6.23;;
6420;SDS011;3243;50.958;7.012;2023-04-25T05:11:24;16.57;;;6.10;;
6420;SDS011;3243;50.958;7.012;2023-04-25T05:13:54;14.80;;;6.50;;
6420;SDS011;3243;50.958;7.012;2023-04-25T05:16:20;23.33;;;6.17;;
6420;SDS011;3243;50.958;7.012;2023-04-25T05:18:47;15.83;;;6.03;;
6420;SDS011;3243;50.958;7.012;2023-04-25T05:21:14;13.80;;;5.87;;
6420;SDS011;3243;50.958;7.012;2023-04-25T05:23:41;17.47;;;6.17;;
6420;SDS011;3243;50.958;7.012;2023-04-25T05:26:07;12.70;;;6.10;;
6420;SDS011;3243;50.958;7.012;2023-04-25T05:28:40;14.73;;;6.20;;
6420;SDS011;3243;50.958;7.012;2023-04-25T05:31:09;13.47;;;5.83;;
6420;SDS011;3243;50.958;7.012;2023-04-25T05:33:36;13.93;;;6.40;;
6420;SDS011;3243;50.958;7.012;2023-04-25T05:36:03;14.10;;;6.20;;
6420;SDS011;3243;50.958;7.012;2023-04-25T05:38:30;11.83;;;5.67;;
6420;SDS011;3243;50.958;7.012;2023-04-25T05:41:00;12.93;;;5.10;;
6420;SDS011;3243;50.958;7.012;2023-04-25T05:43:27;11.63;;;5.67;;
6420;SDS011;3243;50.958;7.012;2023-04-25T05:45:53;15.23;;;6.30;;
6420;SDS011;3243;50.958;7.012;2023-04-25T05:48:20;11.57;;;5.40;;
6420;SDS011;3243;50.958;7.012;2023-04-25T05:50:47;20.13;;;5.77;;
6420;SDS011;3243;50.958;7.012;2023-04-25T05:53:14;13.50;;;6.03;;
6420;SDS011;3243;50.958;7.012;2023-04-25T05:55:41;18.20;;;6.33;;
6420;SDS011;3243;50.958;7.012;2023-04-25T05:58:08;15.10;;;6.13;;
6420;SDS011;3243;50.958;7.012;2023-04-25T06:00:34;13.53;;;5.43;;
6420;SDS011;3243;50.958;7.012;2023-04-25T06:03:01;10.10;;;5.00;;
6420;SDS011;3243;50.958;7.012;2023-04-25T06:05:28;14.63;;;5.90;;
6420;SDS011;3243;50.958;7.012;2023-04-25T06:07:56;17.30;;;5.43;;
6420;SDS011;3243;50.958;7.012;2023-04-25T06:10:22;11.40;;;5.03;;
6420;SDS011;3243;50.958;7.012;2023-04-25T06:12:50;14.03;;;5.00;;
6420;SDS011;3243;50.958;7.012;2023-04-25T06:15:16;15.30;;;5.63;;
6420;SDS011;3243;50.958;7.012;2023-04-25T06:17:54;12.50;;;4.73;;
6420;SDS011;3243;50.958;7.012;2023-04-25T06:20:21;16.07;;;5.60;;
6420;SDS011;3243;50.958;7.012;2023-04-25T06:22:50;13.57;;;4.90;;
6420;SDS011;3243;50.958;7.012;2023-04-25T06:25:18;17.20;;;4.57;;
6420;SDS011;3243;50.958;7.012;2023-04-25T06:27:44;16.73;;;4.77;;
6420;SDS011;3243;50.958;7.012;2023-04-25T06:30:11;11.33;;;4.53;;
6420;SDS011;3243;50.958;7.012;2023-04-25T06:32:39;14.20;;;4.20;;
6420;SDS011;3243;50.958;7.012;2023-04-25T06:35:05;13.10;;;4.27;;
6420;SDS011;3243;50.958;7.012;2023-04-25T06:37:32;12.13;;;4.00;;
6420;SDS011;3243;50.958;7.012;2023-04-25T06:39:59;12.33;;;4.10;;
6420;SDS011;3243;50.958;7.012;2023-04-25T06:42:26;15.53;;;4.67;;
6420;SDS011;3243;50.958;7.012;2023-04-25T06:44:52;16.97;;;4.77;;
6420;SDS011;3243;50.958;7.012;2023-04-25T06:47:19;16.23;;;4.50;;
6420;SDS011;3243;50.958;7.012;2023-04-25T06:49:46;15.00;;;4.37;;
6420;SDS011;3243;50.958;7.012;2023-04-25T06:52:13;15.03;;;4.73;;
6420;SDS011;3243;50.958;7.012;2023-04-25T06:54:39;15.37;;;4.47;;
6420;SDS011;3243;50.958;7.012;2023-04-25T06:57:06;8.17;;;3.30;;
6420;SDS011;3243;50.958;7.012;2023-04-25T06:59:33;13.83;;;4.10;;
6420;SDS011;3243;50.958;7.012;2023-04-25T07:01:59;11.20;;;4.10;;
6420;SDS011;3243;50.958;7.012;2023-04-25T07:04:26;11.93;;;3.97;;
6420;SDS011;3243;50.958;7.012;2023-04-25T07:06:53;14.93;;;4.40;;
6420;SDS011;3243;50.958;7.012;2023-04-25T07:09:21;12.73;;;3.93;;
6420;SDS011;3243;50.958;7.012;2023-04-25T07:11:47;21.83;;;5.20;;
6420;SDS011;3243;50.958;7.012;2023-04-25T07:14:14;12.73;;;3.90;;
6420;SDS011;3243;50.958;7.012;2023-04-25T07:16:41;16.40;;;4.30;;
6420;SDS011;3243;50.958;7.012;2023-04-25T07:19:08;18.20;;;4.27;;
6420;SDS011;3243;50.958;7.012;2023-04-25T07:21:34;11.50;;;3.87;;
6420;SDS011;3243;50.958;7.012;2023-04-25T07:24:02;13.77;;;3.60;;
6420;SDS011;3243;50.958;7.012;2023-04-25T07:26:29;11.27;;;3.77;;
6420;SDS011;3243;50.958;7.012;2023-04-25T07:28:55;13.77;;;3.60;;
6420;SDS011;3243;50.958;7.012;2023-04-25T07:31:22;9.90;;;3.87;;
6420;SDS011;3243;50.958;7.012;2023-04-25T07:33:50;13.67;;;4.20;;
6420;SDS011;3243;50.958;7.012;2023-04-25T07:36:16;14.83;;;3.33;;
6420;SDS011;3243;50.958;7.012;2023-04-25T07:38:43;16.33;;;3.90;;
6420;SDS011;3243;50.958;7.012;2023-04-25T07:41:10;8.83;;;3.33;;
6420;SDS011;3243;50.958;7.012;2023-04-25T07:43:36;9.17;;;3.10;;
6420;SDS011;3243;50.958;7.012;2023-04-25T07:46:03;11.77;;;3.77;;
6420;SDS011;3243;50.958;7.012;2023-04-25T07:48:31;11.13;;;3.80;;
6420;SDS011;3243;50.958;7.012;2023-04-25T07:50:57;10.97;;;3.67;;
6420;SDS011;3243;50.958;7.012;2023-04-25T07:53:24;9.97;;;3.73;;
6420;SDS011;3243;50.958;7.012;2023-04-25T07:55:51;10.87;;;4.13;;
6420;SDS011;3243;50.958;7.012;2023-04-25T07:58:18;12.90;;;4.30;;
6420;SDS011;3243;50.958;7.012;2023-04-25T08:00:48;13.27;;;4.33;;
6420;SDS011;3243;50.958;7.012;2023-04-25T08:03:15;12.53;;;4.00;;
6420;SDS011;3243;50.958;7.012;2023-04-25T08:05:42;11.97;;;3.40;;
6420;SDS011;3243;50.958;7.012;2023-04-25T08:08:09;10.23;;;4.00;;
6420;SDS011;3243;50.958;7.012;2023-04-25T08:10:36;9.00;;;3.00;;
6420;SDS011;3243;50.958;7.012;2023-04-25T08:13:03;10.83;;;4.10;;
6420;SDS011;3243;50.958;7.012;2023-04-25T08:15:30;9.07;;;2.97;;
6420;SDS011;3243;50.958;7.012;2023-04-25T08:17:56;11.17;;;3.87;;
6420;SDS011;3243;50.958;7.012;2023-04-25T08:20:23;10.67;;;3.43;;
6420;SDS011;3243;50.958;7.012;2023-04-25T08:22:51;8.53;;;2.93;;
6420;SDS011;3243;50.958;7.012;2023-04-25T08:25:17;14.60;;;2.97;;
6420;SDS011;3243;50.958;7.012;2023-04-25T08:27:44;11.87;;;2.97;;
6420;SDS011;3243;50.958;7.012;2023-04-25T08:30:11;10.47;;;2.90;;
6420;SDS011;3243;50.958;7.012;2023-04-25T08:32:38;5.70;;;2.63;;
6420;SDS011;3243;50.958;7.012;2023-04-25T08:35:05;11.10;;;3.60;;
6420;SDS011;3243;50.958;7.012;2023-04-25T08:37:32;8.13;;;2.57;;
6420;SDS011;3243;50.958;7.012;2023-04-25T08:39:59;7.90;;;2.73;;
6420;SDS011;3243;50.958;7.012;2023-04-25T08:42:26;10.00;;;2.70;;
6420;SDS011;3243;50.958;7.012;2023-04-25T08:44:53;12.30;;;2.80;;
6420;SDS011;3243;50.958;7.012;2023-04-25T08:47:21;9.27;;;3.70;;
6420;SDS011;3243;50.958;7.012;2023-04-25T08:49:49;11.37;;;3.00;;
6420;SDS011;3243;50.958;7.012;2023-04-25T08:52:21;11.53;;;3.10;;
6420;SDS011;3243;50.958;7.012;2023-04-25T08:54:49;9.50;;;3.17;;
6420;SDS011;3243;50.958;7.012;2023-04-25T08:57:17;11.13;;;3.40;;
6420;SDS011;3243;50.958;7.012;2023-04-25T08:59:46;13.30;;;3.27;;
6420;SDS011;3243;50.958;7.012;2023-04-25T09:02:13;11.77;;;3.13;;
6420;SDS011;3243;50.958;7.012;2023-04-25T09:04:43;13.87;;;4.40;;
6420;SDS011;3243;50.958;7.012;2023-04-25T09:07:10;13.70;;;3.43;;
6420;SDS011;3243;50.958;7.012;2023-04-25T09:09:37;11.43;;;3.90;;
6420;SDS011;3243;50.958;7.012;2023-04-25T09:12:03;12.90;;;5.23;;
6420;SDS011;3243;50.958;7.012;2023-04-25T09:14:31;7.70;;;3.50;;
6420;SDS011;3243;50.958;7.012;2023-04-25T09:19:34;16.13;;;3.60;;
6420;SDS011;3243;50.958;7.012;2023-04-25T09:22:07;11.37;;;3.33;;
6420;SDS011;3243;50.958;7.012;2023-04-25T09:24:43;7.13;;;3.00;;
6420;SDS011;3243;50.958;7.012;2023-04-25T09:27:13;9.70;;;2.97;;
6420;SDS011;3243;50.958;7.012;2023-04-25T09:29:45;6.13;;;3.07;;
6420;SDS011;3243;50.958;7.012;2023-04-25T09:37:32;11.43;;;3.67;;
6420;SDS011;3243;50.958;7.012;2023-04-25T09:40:00;8.90;;;2.80;;
6420;SDS011;3243;50.958;7.012;2023-04-25T09:42:31;11.13;;;2.70;;
6420;SDS011;3243;50.958;7.012;2023-04-25T09:45:00;9.67;;;3.00;;
6420;SDS011;3243;50.958;7.012;2023-04-25T09:47:28;11.67;;;3.27;;
6420;SDS011;3243;50.958;7.012;2023-04-25T09:49:55;11.23;;;3.07;;
6420;SDS011;3243;50.958;7.012;2023-04-25T09:52:22;6.43;;;2.63;;
6420;SDS011;3243;50.958;7.012;2023-04-25T09:54:51;7.17;;;3.00;;
6420;SDS011;3243;50.958;7.012;2023-04-25T09:59:53;8.53;;;2.87;;
6420;SDS011;3243;50.958;7.012;2023-04-25T10:02:22;9.90;;;2.90;;
6420;SDS011;3243;50.958;7.012;2023-04-25T10:04:50;10.00;;;2.60;;
6420;SDS011;3243;50.958;7.012;2023-04-25T10:07:25;8.70;;;2.80;;
6420;SDS011;3243;50.958;7.012;2023-04-25T10:09:58;7.10;;;2.60;;
6420;SDS011;3243;50.958;7.012;2023-04-25T10:12:28;8.73;;;3.30;;
6420;SDS011;3243;50.958;7.012;2023-04-25T10:14:55;11.73;;;3.70;;
6420;SDS011;3243;50.958;7.012;2023-04-25T10:17:22;15.13;;;4.10;;
6420;SDS011;3243;50.958;7.012;2023-04-25T10:19:49;10.63;;;4.50;;
6420;SDS011;3243;50.958;7.012;2023-04-25T10:22:18;9.07;;;4.40;;
6420;SDS011;3243;50.958;7.012;2023-04-25T10:24:52;9.77;;;3.97;;
6420;SDS011;3243;50.958;7.012;2023-04-25T10:27:19;12.00;;;3.73;;
6420;SDS011;3243;50.958;7.012;2023-04-25T10:29:46;7.07;;;3.50;;
6420;SDS011;3243;50.958;7.012;2023-04-25T10:32:31;6.50;;;2.30;;
6420;SDS011;3243;50.958;7.012;2023-04-25T10:35:17;8.83;;;2.30;;
6420;SDS011;3243;50.958;7.012;2023-04-25T10:37:59;8.80;;;2.70;;
6420;SDS011;3243;50.958;7.012;2023-04-25T10:40:26;6.13;;;2.30;;
6420;SDS011;3243;50.958;7.012;2023-04-25T10:42:53;4.80;;;2.10;;
6420;SDS011;3243;50.958;7.012;2023-04-25T10:45:23;6.90;;;2.10;;
6420;SDS011;3243;50.958;7.012;2023-04-25T10:47:51;5.70;;;2.03;;
6420;SDS011;3243;50.958;7.012;2023-04-25T10:50:17;5.27;;;2.00;;
6420;SDS011;3243;50.958;7.012;2023-04-25T10:52:44;5.60;;;2.37;;
6420;SDS011;3243;50.958;7.012;2023-04-25T10:55:11;7.53;;;2.40;;
6420;SDS011;3243;50.958;7.012;2023-04-25T10:57:39;5.73;;;2.40;;
6420;SDS011;3243;50.958;7.012;2023-04-25T11:00:09;8.23;;;2.40;;
6420;SDS011;3243;50.958;7.012;2023-04-25T11:02:46;10.37;;;2.90;;
6420;SDS011;3243;50.958;7.012;2023-04-25T11:08:17;12.57;;;4.30;;
6420;SDS011;3243;50.958;7.012;2023-04-25T11:10:59;8.27;;;4.20;;
6420;SDS011;3243;50.958;7.012;2023-04-25T11:13:29;8.40;;;3.40;;
6420;SDS011;3243;50.958;7.012;2023-04-25T11:15:56;7.07;;;2.30;;
6420;SDS011;3243;50.958;7.012;2023-04-25T11:18:40;7.73;;;2.50;;
6420;SDS011;3243;50.958;7.012;2023-04-25T11:21:07;5.10;;;2.00;;
6420;SDS011;3243;50.958;7.012;2023-04-25T11:23:34;6.13;;;2.37;;
6420;SDS011;3243;50.958;7.012;2023-04-25T11:26:01;5.00;;;2.37;;
6420;SDS011;3243;50.958;7.012;2023-04-25T11:28:31;9.40;;;2.33;;
6420;SDS011;3243;50.958;7.012;2023-04-25T11:30:58;6.57;;;2.70;;
6420;SDS011;3243;50.958;7.012;2023-04-25T11:33:25;6.03;;;2.07;;
6420;SDS011;3243;50.958;7.012;2023-04-25T11:35:54;6.10;;;2.47;;
6420;SDS011;3243;50.958;7.012;2023-04-25T11:38:22;8.07;;;2.90;;
6420;SDS011;3243;50.958;7.012;2023-04-25T11:40:52;7.37;;;2.33;;
6420;SDS011;3243;50.958;7.012;2023-04-25T11:43:22;9.47;;;2.33;;
6420;SDS011;3243;50.958;7.012;2023-04-25T11:45:49;7.10;;;2.40;;
6420;SDS011;3243;50.958;7.012;2023-04-25T11:48:19;9.93;;;2.40;;
6420;SDS011;3243;50.958;7.012;2023-04-25T11:50:51;9.27;;;3.37;;
6420;SDS011;3243;50.958;7.012;2023-04-25T11:53:19;6.93;;;2.80;;
6420;SDS011;3243;50.958;7.012;2023-04-25T11:55:46;6.27;;;2.70;;
6420;SDS011;3243;50.958;7.012;2023-04-25T11:58:13;7.50;;;2.70;;
6420;SDS011;3243;50.958;7.012;2023-04-25T12:00:41;7.70;;;2.87;;
6420;SDS011;3243;50.958;7.012;2023-04-25T12:03:17;5.07;;;2.70;;
6420;SDS011;3243;50.958;7.012;2023-04-25T12:05:45;5.90;;;2.57;;
6420;SDS011;3243;50.958;7.012;2023-04-25T12:08:13;5.13;;;2.37;;
6420;SDS011;3243;50.958;7.012;2023-04-25T12:10:41;6.87;;;2.13;;
6420;SDS011;3243;50.958;7.012;2023-04-25T12:13:22;4.87;;;2.20;;
6420;SDS011;3243;50.958;7.012;2023-04-25T12:15:50;5.47;;;2.00;;
6420;SDS011;3243;50.958;7.012;2023-04-25T12:18:20;3.70;;;1.93;;
6420;SDS011;3243;50.958;7.012;2023-04-25T12:20:50;5.73;;;1.87;;
6420;SDS011;3243;50.958;7.012;2023-04-25T12:23:24;5.23;;;2.20;;
6420;SDS011;3243;50.958;7.012;2023-04-25T12:25:53;6.33;;;2.10;;
6420;SDS011;3243;50.958;7.012;2023-04-25T12:28:21;4.33;;;2.10;;
6420;SDS011;3243;50.958;7.012;2023-04-25T12:30:54;4.47;;;1.80;;
6420;SDS011;3243;50.958;7.012;2023-04-25T12:35:59;4.60;;;1.87;;
6420;SDS011;3243;50.958;7.012;2023-04-25T12:38:34;5.63;;;2.10;;
6420;SDS011;3243;50.958;7.012;2023-04-25T12:41:03;5.53;;;2.63;;
6420;SDS011;3243;50.958;7.012;2023-04-25T12:43:29;4.87;;;2.47;;
6420;SDS011;3243;50.958;7.012;2023-04-25T12:45:56;4.80;;;2.27;;
6420;SDS011;3243;50.958;7.012;2023-04-25T12:48:23;4.53;;;1.97;;
6420;SDS011;3243;50.958;7.012;2023-04-25T12:50:50;4.10;;;1.90;;
6420;SDS011;3243;50.958;7.012;2023-04-25T12:53:18;5.93;;;2.07;;
6420;SDS011;3243;50.958;7.012;2023-04-25T12:55:46;5.57;;;2.00;;
6420;SDS011;3243;50.958;7.012;2023-04-25T12:58:14;5.27;;;2.30;;
6420;SDS011;3243;50.958;7.012;2023-04-25T13:00:41;5.57;;;2.30;;
6420;SDS011;3243;50.958;7.012;2023-04-25T13:03:09;4.73;;;2.60;;
6420;SDS011;3243;50.958;7.012;2023-04-25T13:05:37;3.10;;;2.13;;
6420;SDS011;3243;50.958;7.012;2023-04-25T13:08:05;4.93;;;2.20;;
6420;SDS011;3243;50.958;7.012;2023-04-25T13:10:31;8.13;;;2.50;;
6420;SDS011;3243;50.958;7.012;2023-04-25T13:13:00;6.17;;;2.97;;
6420;SDS011;3243;50.958;7.012;2023-04-25T13:15:27;3.90;;;2.20;;
6420;SDS011;3243;50.958;7.012;2023-04-25T13:17:54;5.83;;;2.63;;
6420;SDS011;3243;50.958;7.012;2023-04-25T13:20:22;7.77;;;2.20;;
6420;SDS011;3243;50.958;7.012;2023-04-25T13:22:49;5.97;;;2.50;;
6420;SDS011;3243;50.958;7.012;2023-04-25T13:25:16;7.50;;;3.47;;
6420;SDS011;3243;50.958;7.012;2023-04-25T13:27:42;8.80;;;3.33;;
6420;SDS011;3243;50.958;7.012;2023-04-25T13:30:10;6.70;;;2.40;;
6420;SDS011;3243;50.958;7.012;2023-04-25T13:32:38;5.07;;;1.90;;
6420;SDS011;3243;50.958;7.012;2023-04-25T13:35:07;4.47;;;2.23;;
6420;SDS011;3243;50.958;7.012;2023-04-25T13:37:36;7.23;;;2.40;;
6420;SDS011;3243;50.958;7.012;2023-04-25T13:40:05;5.00;;;2.30;;
6420;SDS011;3243;50.958;7.012;2023-04-25T13:42:36;4.17;;;2.00;;
6420;SDS011;3243;50.958;7.012;2023-04-25T13:45:03;3.67;;;1.90;;
6420;SDS011;3243;50.958;7.012;2023-04-25T13:47:30;3.40;;;2.00;;
6420;SDS011;3243;50.958;7.012;2023-04-25T13:49:57;2.70;;;1.73;;
6420;SDS011;3243;50.958;7.012;2023-04-25T13:52:25;4.00;;;1.93;;
6420;SDS011;3243;50.958;7.012;2023-04-25T13:54:52;4.60;;;1.90;;
6420;SDS011;3243;50.958;7.012;2023-04-25T13:57:19;7.50;;;2.50;;
6420;SDS011;3243;50.958;7.012;2023-04-25T13:59:46;6.53;;;2.53;;
6420;SDS011;3243;50.958;7.012;2023-04-25T14:02:13;6.17;;;2.50;;
6420;SDS011;3243;50.958;7.012;2023-04-25T14:04:40;5.53;;;2.53;;
6420;SDS011;3243;50.958;7.012;2023-04-25T14:07:07;6.53;;;2.43;;
6420;SDS011;3243;50.958;7.012;2023-04-25T14:09:34;6.53;;;2.40;;
6420;SDS011;3243;50.958;7.012;2023-04-25T14:12:01;5.20;;;2.60;;
6420;SDS011;3243;50.958;7.012;2023-04-25T14:14:28;8.27;;;2.50;;
6420;SDS011;3243;50.958;7.012;2023-04-25T14:16:55;4.43;;;2.30;;
6420;SDS011;3243;50.958;7.012;2023-04-25T14:19:23;4.47;;;2.50;;
6420;SDS011;3243;50.958;7.012;2023-04-25T14:21:50;4.40;;;2.23;;
6420;SDS011;3243;50.958;7.012;2023-04-25T14:24:17;4.17;;;2.27;;
6420;SDS011;3243;50.958;7.012;2023-04-25T14:26:44;3.03;;;1.90;;
6420;SDS011;3243;50.958;7.012;2023-04-25T14:29:11;6.37;;;2.90;;
6420;SDS011;3243;50.958;7.012;2023-04-25T14:31:38;7.97;;;3.00;;
6420;SDS011;3243;50.958;7.012;2023-04-25T14:34:06;5.70;;;2.30;;
6420;SDS011;3243;50.958;7.012;2023-04-25T14:36:35;5.27;;;2.73;;
6420;SDS011;3243;50.958;7.012;2023-04-25T14:39:02;6.07;;;2.57;;
6420;SDS011;3243;50.958;7.012;2023-04-25T14:41:31;6.07;;;2.40;;
6420;SDS011;3243;50.958;7.012;2023-04-25T14:43:58;5.97;;;2.03;;
6420;SDS011;3243;50.958;7.012;2023-04-25T14:46:25;3.40;;;2.30;;
6420;SDS011;3243;50.958;7.012;2023-04-25T14:48:52;4.47;;;2.20;;
6420;SDS011;3243;50.958;7.012;2023-04-25T14:51:21;8.43;;;2.50;;
6420;SDS011;3243;50.958;7.012;2023-04-25T14:53:48;3.83;;;2.40;;
6420;SDS011;3243;50.958;7.012;2023-04-25T14:56:16;2.17;;;1.37;;
6420;SDS011;3243;50.958;7.012;2023-04-25T14:58:43;4.57;;;1.73;;
6420;SDS011;3243;50.958;7.012;2023-04-25T15:01:11;4.50;;;1.80;;
6420;SDS011;3243;50.958;7.012;2023-04-25T15:03:42;5.17;;;1.80;;
6420;SDS011;3243;50.958;7.012;2023-04-25T15:06:09;3.37;;;1.67;;
6420;SDS011;3243;50.958;7.012;2023-04-25T15:08:36;3.03;;;2.07;;
6420;SDS011;3243;50.958;7.012;2023-04-25T15:11:03;6.40;;;2.83;;
6420;SDS011;3243;50.958;7.012;2023-04-25T15:13:30;5.57;;;2.90;;
6420;SDS011;3243;50.958;7.012;2023-04-25T15:15:58;6.33;;;3.23;;
6420;SDS011;3243;50.958;7.012;2023-04-25T15:18:24;12.37;;;5.50;;
6420;SDS011;3243;50.958;7.012;2023-04-25T15:20:52;10.17;;;4.23;;
6420;SDS011;3243;50.958;7.012;2023-04-25T15:23:19;6.87;;;3.97;;
6420;SDS011;3243;50.958;7.012;2023-04-25T15:25:49;6.00;;;2.40;;
6420;SDS011;3243;50.958;7.012;2023-04-25T15:28:16;5.30;;;1.93;;